createdAt,value
2019-01-23T00:00:46.587Z,96481.10
2019-01-23T00:03:15.053Z,96482.58
2019-01-23T00:05:43.451Z,96471.37
2019-01-23T00:08:12.207Z,96474.65
2019-01-23T00:10:40.675Z,96471.14
2019-01-23T00:13:09.138Z,96469.38
2019-01-23T00:15:37.850Z,96459.10
2019-01-23T00:18:06.314Z,96460.86
2019-01-23T00:20:34.724Z,96461.62
2019-01-23T00:23:03.116Z,96453.05
2019-01-23T00:25:31.529Z,96447.94
2019-01-23T00:27:59.922Z,96443.53
2019-01-23T00:30:28.314Z,96451.17
2019-01-23T00:32:56.722Z,96438.98
2019-01-23T00:35:25.115Z,96433.50
2019-01-23T00:37:53.524Z,96426.34
2019-01-23T00:40:21.918Z,96423.69
2019-01-23T00:42:50.333Z,96418.36
2019-01-23T00:45:19.009Z,96418.30
2019-01-23T00:47:47.699Z,96411.62
2019-01-23T00:50:16.484Z,96412.53
2019-01-23T00:52:45.131Z,96409.22
2019-01-23T00:55:32.859Z,96409.25
2019-01-23T00:58:01.268Z,96406.56
2019-01-23T01:00:30.194Z,96406.97
2019-01-23T01:02:58.576Z,96399.05
2019-01-23T01:05:46.565Z,96397.75
2019-01-23T01:08:15.279Z,96401.59
2019-01-23T01:10:43.674Z,96394.42
2019-01-23T01:13:12.341Z,96391.98
2019-01-23T01:15:41.131Z,96392.76
2019-01-23T01:18:09.816Z,96382.58
2019-01-23T01:20:38.211Z,96387.14
2019-01-23T01:23:06.612Z,96381.58
2019-01-23T01:25:35.016Z,96382.95
2019-01-23T01:28:03.411Z,96379.36
2019-01-23T01:30:32.123Z,96375.12
2019-01-23T01:33:00.590Z,96374.09
2019-01-23T01:35:28.994Z,96364.55
2019-01-23T01:37:57.678Z,96359.77
2019-01-23T01:40:26.091Z,96357.06
2019-01-23T01:42:54.834Z,96356.52
2019-01-23T01:45:23.234Z,96354.80
2019-01-23T01:47:51.641Z,96355.95
2019-01-23T01:50:59.936Z,96354.89
2019-01-23T01:53:29.329Z,96351.34
2019-01-23T01:55:58.460Z,96354.11
2019-01-23T01:58:26.864Z,96347.02
2019-01-23T02:00:55.257Z,96347.61
2019-01-23T02:03:23.672Z,96324.80
2019-01-23T02:05:52.062Z,96343.87
2019-01-23T02:08:20.704Z,96339.42
2019-01-23T02:10:49.170Z,96335.36
2019-01-23T02:13:17.565Z,96335.42
2019-01-23T02:15:45.974Z,96331.33
2019-01-23T02:18:14.371Z,96328.02
2019-01-23T02:20:42.775Z,96324.80
2019-01-23T02:23:11.413Z,96318.56
2019-01-23T02:25:39.822Z,96311.45
2019-01-23T02:28:08.558Z,96314.22
2019-01-23T02:30:36.956Z,96310.48
2019-01-23T02:35:40.939Z,96304.81
2019-01-23T02:38:09.342Z,96299.28
2019-01-23T02:40:38.026Z,96291.80
2019-01-23T02:43:06.713Z,96290.27
2019-01-23T02:45:35.397Z,96287.05
2019-01-23T02:48:03.864Z,96282.26
2019-01-23T02:50:32.578Z,96276.08
2019-01-23T02:53:01.249Z,96272.87
2019-01-23T02:55:29.660Z,96273.17
2019-01-23T02:57:58.316Z,96259.37
2019-01-23T03:00:26.722Z,96261.07
2019-01-23T03:02:55.115Z,96255.16
2019-01-23T03:05:23.529Z,96253.59
2019-01-23T03:07:52.077Z,96252.60
2019-01-23T03:11:00.627Z,96246.48
2019-01-23T03:13:29.042Z,96242.75
2019-01-23T03:15:57.454Z,96240.34
2019-01-23T03:18:26.111Z,96226.38
2019-01-23T03:20:54.789Z,96234.77
2019-01-23T03:23:23.194Z,96232.17
2019-01-23T03:25:51.586Z,96222.20
2019-01-23T03:28:19.995Z,96227.41
2019-01-23T03:30:48.393Z,96227.42
2019-01-23T03:33:16.813Z,96219.38
2019-01-23T03:35:45.212Z,96218.80
2019-01-23T03:38:13.852Z,96220.19
2019-01-23T03:40:42.536Z,96222.16
2019-01-23T03:43:30.586Z,96218.41
2019-01-23T03:45:58.999Z,96216.81
2019-01-23T03:48:27.399Z,96218.41
2019-01-23T03:50:56.118Z,96217.95
2019-01-23T03:53:24.553Z,96205.27
2019-01-23T03:56:32.835Z,96203.92
2019-01-23T03:59:01.500Z,96215.75
2019-01-23T04:01:29.916Z,96206.61
2019-01-23T04:03:58.311Z,96206.58
2019-01-23T04:06:26.729Z,96201.83
2019-01-23T04:08:55.423Z,96196.17
2019-01-23T04:11:23.824Z,96191.64
2019-01-23T04:14:11.571Z,96192.20
2019-01-23T04:16:39.974Z,96191.64
2019-01-23T04:19:08.383Z,96185.44
2019-01-23T04:21:36.783Z,96189.19
2019-01-23T04:24:45.105Z,96190.01
2019-01-23T04:27:33.130Z,96188.38
2019-01-23T04:30:01.559Z,96178.70
2019-01-23T04:32:30.294Z,96176.80
2019-01-23T04:34:58.696Z,96172.19
2019-01-23T04:37:27.170Z,96174.34
2019-01-23T04:39:55.572Z,96171.12
2019-01-23T04:42:24.323Z,96170.55
2019-01-23T04:44:53.013Z,96164.39
2019-01-23T04:47:40.765Z,96162.52
2019-01-23T04:50:49.069Z,96158.23
2019-01-23T04:55:56.991Z,96155.55
2019-01-23T04:58:25.407Z,96144.53
2019-01-23T05:00:54.144Z,96149.38
2019-01-23T05:03:22.560Z,96143.75
2019-01-23T05:05:50.955Z,96141.10
2019-01-23T05:08:38.695Z,96140.08
2019-01-23T05:11:07.133Z,96138.48
2019-01-23T05:13:35.518Z,96135.23
2019-01-23T05:16:03.931Z,96134.17
2019-01-23T05:18:32.340Z,96138.23
2019-01-23T05:21:01.040Z,96137.70
2019-01-23T05:23:29.728Z,96136.08
2019-01-23T05:25:58.195Z,96139.83
2019-01-23T05:28:26.593Z,96139.30
2019-01-23T05:30:55.270Z,96133.11
2019-01-23T05:33:23.667Z,96130.94
2019-01-23T05:35:52.084Z,96136.36
2019-01-23T05:38:20.485Z,96130.70
2019-01-23T05:40:48.879Z,96121.56
2019-01-23T05:43:17.290Z,96112.75
2019-01-23T05:45:45.951Z,96122.13
2019-01-23T05:48:33.950Z,96122.66
2019-01-23T05:51:02.675Z,96115.16
2019-01-23T05:53:31.071Z,96121.09
2019-01-23T05:55:59.479Z,96121.69
2019-01-23T05:58:28.123Z,96110.91
2019-01-23T06:00:56.543Z,96113.87
2019-01-23T06:03:25.031Z,96110.62
2019-01-23T06:05:53.403Z,96114.41
2019-01-23T06:08:21.813Z,96109.81
2019-01-23T06:10:50.449Z,96115.72
2019-01-23T06:13:18.858Z,96116.25
2019-01-23T06:15:47.558Z,96108.96
2019-01-23T06:18:16.283Z,96111.91
2019-01-23T06:20:44.963Z,96108.64
2019-01-23T06:23:13.380Z,96109.49
2019-01-23T06:25:41.780Z,96104.36
2019-01-23T06:28:10.178Z,96108.40
2019-01-23T06:30:38.591Z,96104.11
2019-01-23T06:33:18.925Z,96109.53
2019-01-23T06:35:47.622Z,96102.27
2019-01-23T06:38:16.311Z,96081.64
2019-01-23T06:40:44.726Z,96101.99
2019-01-23T06:43:13.122Z,96105.49
2019-01-23T06:45:41.755Z,96104.15
2019-01-23T06:48:10.169Z,96098.48
2019-01-23T06:50:38.561Z,96097.95
2019-01-23T06:53:13.812Z,96100.89
2019-01-23T06:55:37.424Z,96096.61
2019-01-23T06:58:05.819Z,96095.30
2019-01-23T07:00:34.237Z,96097.67
2019-01-23T07:03:02.708Z,96092.33
2019-01-23T07:05:31.386Z,96089.67
2019-01-23T07:08:00.042Z,96095.02
2019-01-23T07:10:28.693Z,96098.27
2019-01-23T07:12:57.115Z,96094.23
2019-01-23T07:15:25.793Z,96097.20
2019-01-23T07:17:54.189Z,96092.86
2019-01-23T07:21:02.500Z,96093.64
2019-01-23T07:23:30.898Z,96086.63
2019-01-23T07:26:18.654Z,96088.22
2019-01-23T07:28:49.308Z,96089.31
2019-01-23T07:31:17.529Z,96090.91
2019-01-23T07:33:45.936Z,96090.09
2019-01-23T07:36:33.672Z,96095.19
2019-01-23T07:39:02.395Z,96091.97
2019-01-23T07:41:30.798Z,96088.50
2019-01-23T07:43:59.457Z,96093.59
2019-01-23T07:46:27.870Z,96092.50
2019-01-23T07:48:56.268Z,96088.71
2019-01-23T07:51:24.682Z,96084.96
2019-01-23T07:53:53.079Z,96089.20
2019-01-23T07:56:21.757Z,96087.81
2019-01-23T07:58:50.167Z,96081.90
2019-01-23T08:01:18.563Z,96093.27
2019-01-23T08:03:46.972Z,96079.41
2019-01-23T08:06:15.371Z,96078.00
2019-01-23T08:08:43.824Z,96072.81
2019-01-23T08:11:12.243Z,96070.28
2019-01-23T08:13:40.960Z,96065.05
2019-01-23T08:16:09.327Z,96070.27
2019-01-23T08:18:37.720Z,96070.27
2019-01-23T08:21:06.131Z,96067.72
2019-01-23T08:23:34.847Z,96070.86
2019-01-23T08:26:03.266Z,96067.66
2019-01-23T08:28:31.690Z,96063.81
2019-01-23T08:31:00.074Z,96067.95
2019-01-23T08:33:28.490Z,96071.69
2019-01-23T08:35:56.960Z,96068.56
2019-01-23T08:38:25.372Z,96062.70
2019-01-23T08:40:53.776Z,96065.86
2019-01-23T08:43:22.182Z,96076.09
2019-01-23T08:45:50.584Z,96071.48
2019-01-23T08:48:18.986Z,96074.02
2019-01-23T08:50:47.396Z,96067.96
2019-01-23T08:53:15.795Z,96067.72
2019-01-23T08:55:44.193Z,96058.60
2019-01-23T08:58:31.940Z,96062.47
2019-01-23T09:01:00.354Z,96058.78
2019-01-23T09:03:28.746Z,96056.14
2019-01-23T09:05:57.456Z,96048.20
2019-01-23T09:08:25.864Z,96046.53
2019-01-23T09:10:54.257Z,96047.80
2019-01-23T09:13:22.772Z,96052.48
2019-01-23T09:15:51.161Z,96050.88
2019-01-23T09:18:19.570Z,96051.30
2019-01-23T09:20:48.245Z,96047.89
2019-01-23T09:23:16.713Z,96042.39
2019-01-23T09:25:49.672Z,96054.18
2019-01-23T09:28:15.238Z,96047.28
2019-01-23T09:31:22.262Z,96048.12
2019-01-23T09:34:30.846Z,96048.55
2019-01-23T09:37:39.402Z,96049.78
2019-01-23T09:40:46.379Z,96049.66
2019-01-23T09:43:54.982Z,96045.14
2019-01-23T09:47:03.607Z,96045.61
2019-01-23T09:50:11.902Z,96047.59
2019-01-23T09:53:20.217Z,96045.58
2019-01-23T09:55:48.613Z,96041.98
2019-01-23T09:58:17.082Z,96040.25
2019-01-23T10:00:45.754Z,96041.30
2019-01-23T10:03:14.441Z,96039.44
2019-01-23T10:05:42.854Z,96028.82
2019-01-23T10:08:11.249Z,96034.75
2019-01-23T10:10:39.657Z,96032.48
2019-01-23T10:13:08.106Z,96031.55
2019-01-23T10:16:16.423Z,96029.23
2019-01-23T10:18:44.958Z,96033.81
2019-01-23T10:21:32.995Z,96028.05
2019-01-23T10:24:01.393Z,96028.76
2019-01-23T10:26:29.812Z,96025.73
2019-01-23T10:28:58.206Z,96029.54
2019-01-23T10:31:26.602Z,96022.39
2019-01-23T10:33:55.302Z,96019.88
2019-01-23T10:36:23.706Z,96022.39
2019-01-23T10:38:52.362Z,96014.78
2019-01-23T10:41:20.753Z,96019.84
2019-01-23T10:43:49.163Z,96023.38
2019-01-23T10:46:17.612Z,96018.80
2019-01-23T10:48:46.022Z,96017.61
2019-01-23T10:51:14.412Z,96010.99
2019-01-23T10:53:42.874Z,96006.73
2019-01-23T10:56:30.614Z,96011.00
2019-01-23T10:58:59.007Z,96008.60
2019-01-23T11:01:27.416Z,96013.79
2019-01-23T11:03:55.811Z,96011.46
2019-01-23T11:06:24.224Z,96010.03
2019-01-23T11:08:52.617Z,96008.19
2019-01-23T11:11:21.010Z,96008.39
2019-01-23T11:13:49.738Z,96008.39
2019-01-23T11:16:18.135Z,96007.84
2019-01-23T11:18:46.547Z,96004.95
2019-01-23T11:21:14.941Z,96001.09
2019-01-23T11:23:43.662Z,96004.73
2019-01-23T11:26:12.136Z,96005.70
2019-01-23T11:28:40.528Z,95990.66
2019-01-23T11:31:08.951Z,95996.29
2019-01-23T11:33:37.698Z,95987.09
2019-01-23T11:36:06.233Z,95988.04
2019-01-23T11:38:34.621Z,95982.67
2019-01-23T11:41:03.151Z,95986.70
2019-01-23T11:43:31.547Z,95989.64
2019-01-23T11:46:00.005Z,95980.84
2019-01-23T11:48:28.418Z,95979.80
2019-01-23T11:50:56.800Z,95986.34
2019-01-23T11:53:25.190Z,95978.73
2019-01-23T11:55:53.916Z,95982.38
2019-01-23T11:58:22.305Z,95980.28
2019-01-23T12:00:50.980Z,95980.56
2019-01-23T12:03:21.078Z,95978.38
2019-01-23T12:05:49.782Z,95986.38
2019-01-23T12:08:18.176Z,95979.80
2019-01-23T12:10:46.953Z,95983.96
2019-01-23T12:13:15.376Z,95979.02
2019-01-23T12:15:43.778Z,95976.81
2019-01-23T12:18:12.175Z,95978.30
2019-01-23T12:20:40.882Z,95975.24
2019-01-23T12:23:09.280Z,95954.87
2019-01-23T12:25:37.762Z,95975.63
2019-01-23T12:28:06.154Z,95973.80
2019-01-23T12:31:14.697Z,95979.91
2019-01-23T12:33:43.421Z,95978.78
2019-01-23T12:36:11.830Z,95979.77
2019-01-23T12:38:40.489Z,95972.02
2019-01-23T12:41:08.884Z,95972.30
2019-01-23T12:43:37.437Z,95976.00
2019-01-23T12:46:06.133Z,95967.91
2019-01-23T12:48:34.551Z,95971.92
2019-01-23T12:51:02.932Z,95973.98
2019-01-23T12:53:31.680Z,95966.78
2019-01-23T12:56:00.083Z,95963.81
2019-01-23T12:58:28.475Z,95966.27
2019-01-23T13:00:57.127Z,95965.86
2019-01-23T13:03:25.519Z,95963.65
2019-01-23T13:05:53.926Z,95961.33
2019-01-23T13:08:22.319Z,95962.86
2019-01-23T13:10:50.994Z,95971.33
2019-01-23T13:13:19.398Z,95957.03
2019-01-23T13:15:47.842Z,95959.91
2019-01-23T13:18:16.494Z,95964.29
2019-01-23T13:20:45.282Z,95962.78
2019-01-23T13:23:19.662Z,95964.98
2019-01-23T13:25:44.164Z,95961.61
2019-01-23T13:28:12.563Z,95968.98
2019-01-23T13:30:40.974Z,95963.11
2019-01-23T13:33:09.370Z,95963.48
2019-01-23T13:36:17.679Z,95966.14
2019-01-23T13:38:46.069Z,95963.23
2019-01-23T13:41:14.555Z,95970.42
2019-01-23T13:43:42.950Z,95967.42
2019-01-23T13:46:11.665Z,95971.06
2019-01-23T13:48:40.081Z,95974.84
2019-01-23T13:51:08.472Z,95972.30
2019-01-23T13:53:36.882Z,95974.84
2019-01-23T13:56:05.411Z,95973.69
2019-01-23T13:58:33.805Z,95981.11
2019-01-23T14:01:02.285Z,95976.41
2019-01-23T14:03:30.684Z,95977.36
2019-01-23T14:05:59.085Z,95983.52
2019-01-23T14:08:28.506Z,95985.11
2019-01-23T14:10:57.597Z,95986.70
2019-01-23T14:13:26.001Z,95982.42
2019-01-23T14:15:54.394Z,95992.63
2019-01-23T14:18:22.802Z,96000.17
2019-01-23T14:20:51.199Z,96003.41
2019-01-23T14:23:20.792Z,96002.42
2019-01-23T14:25:49.730Z,96008.98
2019-01-23T14:28:18.119Z,96007.09
2019-01-23T14:30:46.524Z,96013.90
2019-01-23T14:33:15.156Z,96015.91
2019-01-23T14:35:43.570Z,96014.55
2019-01-23T14:38:12.105Z,96019.91
2019-01-23T14:40:40.571Z,96024.58
2019-01-23T14:43:09.049Z,96023.56
2019-01-23T14:45:37.442Z,96023.45
2019-01-23T14:48:45.755Z,96026.30
2019-01-23T14:51:14.154Z,96032.76
2019-01-23T14:53:42.541Z,96031.49
2019-01-23T14:56:11.018Z,96032.95
2019-01-23T14:58:39.705Z,96042.84
2019-01-23T15:01:08.118Z,96041.48
2019-01-23T15:03:36.512Z,96042.39
2019-01-23T15:06:05.042Z,96046.38
2019-01-23T15:08:33.445Z,96045.08
2019-01-23T15:11:02.118Z,96038.91
2019-01-23T15:13:49.863Z,96037.99
2019-01-23T15:16:18.253Z,96046.83
2019-01-23T15:18:46.921Z,96045.53
2019-01-23T15:21:15.331Z,96046.99
2019-01-23T15:23:44.037Z,96053.59
2019-01-23T15:26:13.861Z,96057.27
2019-01-23T15:28:42.253Z,96055.50
2019-01-23T15:31:10.651Z,96054.30
2019-01-23T15:33:39.056Z,96055.11
2019-01-23T15:36:07.710Z,96058.63
2019-01-23T15:38:36.124Z,96058.48
2019-01-23T15:41:44.422Z,96055.03
2019-01-23T15:44:12.833Z,96066.19
2019-01-23T15:46:41.233Z,96062.47
2019-01-23T15:49:09.689Z,96072.79
2019-01-23T15:51:38.430Z,96067.01
2019-01-23T15:54:06.825Z,96071.88
2019-01-23T15:56:35.242Z,96069.23
2019-01-23T15:59:03.905Z,96073.56
2019-01-23T16:01:32.298Z,96075.46
2019-01-23T16:04:00.713Z,96073.80
2019-01-23T16:06:29.868Z,96085.30
2019-01-23T16:09:19.207Z,96084.96
2019-01-23T16:11:47.670Z,96091.92
2019-01-23T16:14:16.381Z,96093.72
2019-01-23T16:16:44.787Z,96092.63
2019-01-23T16:19:13.178Z,96095.98
2019-01-23T16:21:45.798Z,96099.88
2019-01-23T16:24:12.347Z,96099.80
2019-01-23T16:26:41.026Z,96109.61
2019-01-23T16:29:09.523Z,96101.63
2019-01-23T16:31:38.195Z,96109.50
2019-01-23T16:34:06.602Z,96107.94
2019-01-23T16:36:35.259Z,96111.23
2019-01-23T16:41:58.946Z,96115.08
2019-01-23T16:44:27.634Z,96116.16
2019-01-23T16:46:56.050Z,96120.76
2019-01-23T16:49:24.445Z,96119.92
2019-01-23T16:51:53.180Z,96119.75
2019-01-23T16:54:21.581Z,96123.26
2019-01-23T16:56:49.980Z,96120.97
2019-01-23T16:59:18.388Z,96129.60
2019-01-23T17:01:46.783Z,96137.13
2019-01-23T17:04:15.189Z,96144.98
2019-01-23T17:06:43.590Z,96140.22
2019-01-23T17:09:12.114Z,96142.28
2019-01-23T17:11:40.527Z,96153.22
2019-01-23T17:14:08.996Z,96153.57
2019-01-23T17:16:37.385Z,96157.84
2019-01-23T17:19:05.791Z,96161.63
2019-01-23T17:21:34.185Z,96162.63
2019-01-23T17:24:22.183Z,96163.70
2019-01-23T17:26:50.859Z,96166.59
2019-01-23T17:29:19.260Z,96173.02
2019-01-23T17:31:47.694Z,96179.62
2019-01-23T17:34:16.087Z,96182.73
2019-01-23T17:39:39.635Z,96181.42
2019-01-23T17:42:08.030Z,96183.70
2019-01-23T17:44:36.447Z,96189.75
2019-01-23T17:47:44.760Z,96190.13
2019-01-23T17:50:53.084Z,96192.43
2019-01-23T17:53:21.486Z,96192.24
2019-01-23T17:55:50.140Z,96199.21
2019-01-23T17:58:26.272Z,96203.97
2019-01-23T18:03:34.131Z,96201.97
2019-01-23T18:06:02.599Z,96206.67
2019-01-23T18:08:31.010Z,96214.97
2019-01-23T18:10:59.408Z,96210.75
2019-01-23T18:13:27.876Z,96209.38
2019-01-23T18:16:36.193Z,96218.81
2019-01-23T18:19:44.503Z,96218.61
2019-01-23T18:22:14.456Z,96219.33
2019-01-23T18:24:43.102Z,96222.44
2019-01-23T18:30:00.661Z,96233.50
2019-01-23T18:32:29.065Z,96228.63
2019-01-23T18:35:36.369Z,96225.31
2019-01-23T18:38:44.815Z,96231.11
2019-01-23T18:41:53.100Z,96235.36
2019-01-23T18:45:01.480Z,96245.95
2019-01-23T18:48:10.012Z,96241.88
2019-01-23T18:51:18.632Z,96245.36
2019-01-23T18:53:47.359Z,96248.38
2019-01-23T18:56:16.006Z,96248.75
2019-01-23T18:58:44.401Z,96257.08
2019-01-23T19:01:12.969Z,96253.66
2019-01-23T19:03:41.370Z,96260.70
2019-01-23T19:06:09.841Z,96263.81
2019-01-23T19:08:38.250Z,96273.74
2019-01-23T19:11:06.716Z,96278.56
2019-01-23T19:13:35.128Z,96282.20
2019-01-23T19:16:03.658Z,96279.45
2019-01-23T19:18:32.374Z,96283.46
2019-01-23T19:21:00.783Z,96285.80
2019-01-23T19:23:29.382Z,96285.80
2019-01-23T19:25:58.036Z,96293.81
2019-01-23T19:28:26.435Z,96293.58
2019-01-23T19:30:54.844Z,96292.67
2019-01-23T19:33:23.396Z,96286.93
2019-01-23T19:35:51.796Z,96295.83
2019-01-23T19:38:20.211Z,96297.92
2019-01-23T19:40:48.912Z,96290.73
2019-01-23T19:43:17.556Z,96294.25
2019-01-23T19:45:46.031Z,96294.36
2019-01-23T19:48:14.527Z,96299.73
2019-01-23T19:50:43.051Z,96303.56
2019-01-23T19:53:11.728Z,96302.44
2019-01-23T19:55:40.516Z,96310.08
2019-01-23T19:58:08.958Z,96312.48
2019-01-23T20:00:37.683Z,96315.50
2019-01-23T20:03:06.224Z,96321.11
2019-01-23T20:05:54.393Z,96314.96
2019-01-23T20:08:22.814Z,96323.30
2019-01-23T20:10:51.475Z,96325.98
2019-01-23T20:13:20.200Z,96326.50
2019-01-23T20:15:48.644Z,96332.44
2019-01-23T20:18:17.044Z,96334.15
2019-01-23T20:20:45.457Z,96334.33
2019-01-23T20:23:13.855Z,96332.45
2019-01-23T20:25:42.568Z,96335.59
2019-01-23T20:28:11.110Z,96344.74
2019-01-23T20:30:39.501Z,96345.73
2019-01-23T20:33:07.923Z,96347.51
2019-01-23T20:35:36.319Z,96347.44
2019-01-23T20:38:44.641Z,96350.43
2019-01-23T20:41:13.039Z,96354.95
2019-01-23T20:43:41.435Z,96351.69
2019-01-23T20:46:09.849Z,96366.91
2019-01-23T20:48:38.247Z,96360.91
2019-01-23T20:51:06.664Z,96365.31
2019-01-23T20:53:35.083Z,96367.63
2019-01-23T20:56:03.465Z,96369.19
2019-01-23T20:58:31.870Z,96367.72
2019-01-23T21:01:00.623Z,96373.75
2019-01-23T21:03:34.884Z,96374.58
2019-01-23T21:05:59.156Z,96382.62
2019-01-23T21:08:27.806Z,96382.13
2019-01-23T21:10:56.223Z,96383.45
2019-01-23T21:13:43.974Z,96385.67
2019-01-23T21:16:12.708Z,96391.67
2019-01-23T21:18:41.171Z,96385.36
2019-01-23T21:21:09.578Z,96386.66
2019-01-23T21:23:37.979Z,96399.23
2019-01-23T21:26:06.464Z,96392.00
2019-01-23T21:28:34.863Z,96392.59
2019-01-23T21:31:03.592Z,96401.34
2019-01-23T21:33:32.059Z,96400.47
2019-01-23T21:36:00.454Z,96401.69
2019-01-23T21:38:29.139Z,96403.14
2019-01-23T21:40:57.548Z,96409.55
2019-01-23T21:43:26.189Z,96407.25
2019-01-23T21:45:54.600Z,96410.08
2019-01-23T21:48:22.998Z,96407.30
2019-01-23T21:50:51.412Z,96414.37
2019-01-23T21:53:19.812Z,96416.20
2019-01-23T21:55:48.507Z,96411.20
2019-01-23T21:58:17.154Z,96414.62
2019-01-23T22:00:45.880Z,96418.85
2019-01-23T22:03:14.466Z,96424.98
2019-01-23T22:05:42.868Z,96425.20
2019-01-23T22:08:11.275Z,96428.73
2019-01-23T22:10:59.026Z,96418.66
2019-01-23T22:13:27.729Z,96419.17
2019-01-23T22:15:56.409Z,96424.87
2019-01-23T22:18:24.807Z,96429.31
2019-01-23T22:20:53.207Z,96428.44
2019-01-23T22:23:21.622Z,96434.33
2019-01-23T22:25:50.358Z,96440.83
2019-01-23T22:28:38.111Z,96441.41
2019-01-23T22:31:06.507Z,96439.77
2019-01-23T22:33:35.250Z,96440.11
2019-01-23T22:36:03.730Z,96449.84
2019-01-23T22:38:32.369Z,96455.64
2019-01-23T22:41:00.783Z,96457.56
2019-01-23T22:43:29.184Z,96463.20
2019-01-23T22:45:57.870Z,96466.64
2019-01-23T22:48:26.561Z,96475.23
2019-01-23T22:50:54.960Z,96467.78
2019-01-23T22:53:23.374Z,96475.62
2019-01-23T22:55:51.772Z,96474.77
2019-01-23T22:58:20.177Z,96476.19
2019-01-23T23:01:28.535Z,96483.24
2019-01-23T23:04:02.946Z,96487.83
2019-01-23T23:06:27.207Z,96483.75
2019-01-23T23:08:55.613Z,96489.48
2019-01-23T23:11:24.374Z,96490.27
2019-01-23T23:13:52.791Z,96492.14
2019-01-23T23:16:21.515Z,96495.95
2019-01-23T23:18:49.932Z,96500.23
2019-01-23T23:21:18.583Z,96504.56
2019-01-23T23:23:46.983Z,96511.56
2019-01-23T23:26:15.648Z,96513.95
2019-01-23T23:28:44.051Z,96508.83
2019-01-23T23:31:12.731Z,96524.27
2019-01-23T23:33:41.399Z,96523.21
2019-01-23T23:36:09.795Z,96528.59
2019-01-23T23:38:38.208Z,96523.92
2019-01-23T23:41:06.674Z,96529.08
2019-01-23T23:43:35.088Z,96529.12
2019-01-23T23:46:03.555Z,96533.45
2019-01-23T23:48:31.950Z,96535.08
2019-01-23T23:51:00.668Z,96546.41
2019-01-23T23:53:29.067Z,96544.81
2019-01-23T23:55:57.479Z,96554.76
2019-01-23T23:58:25.875Z,96559.90
